Time;durP1;ratioP1;P1;durP2;ratioP2;P2;SDS_P1;SDS_P2;PMS_P1;PMS_P2;Temp;Humidity;BMP_temperature;BMP_pressure;BME280_temperature;BME280_humidity;BME280_pressure;Samples;Min_cycle;Max_cycle;Signal;HPM_P1;HPM_P2
2023/05/07 00:02:22;;;;;;;;;2.00;2.00;;;;;21.94;100.00;101062.63;5083314;27;46166;-79
2023/05/07 00:04:48;;;;;;;;;5.00;3.00;;;;;21.95;100.00;101069.66;5083281;27;47309;-82
2023/05/07 00:07:14;;;;;;;;;6.33;4.67;;;;;21.67;100.00;101061.28;5101843;27;45380;-82
2023/05/07 00:09:39;;;;;;;;;3.67;2.00;;;;;21.54;100.00;101081.31;5101556;27;45313;-79
2023/05/07 00:12:05;;;;;;;;;4.33;3.00;;;;;21.29;100.00;101074.34;5101532;27;45409;-81
2023/05/07 00:14:30;;;;;;;;;4.67;4.67;;;;;21.21;100.00;101082.78;5083000;27;48067;-79
2023/05/07 00:16:56;;;;;;;;;5.00;5.00;;;;;21.03;100.00;101064.84;5101685;27;45279;-80
2023/05/07 00:19:21;;;;;;;;;7.00;5.00;;;;;20.97;100.00;101058.50;5101689;27;45265;-81
2023/05/07 00:21:46;;;;;;;;;6.67;4.00;;;;;21.12;100.00;101081.50;5101201;27;45243;-81
2023/05/07 00:24:12;;;;;;;;;5.67;5.67;;;;;21.10;100.00;101068.22;5100590;27;45540;-80
2023/05/07 00:26:37;;;;;;;;;7.33;7.33;;;;;21.15;100.00;101062.13;5082771;27;45297;-79
2023/05/07 00:29:02;;;;;;;;;7.67;7.67;;;;;21.17;100.00;101063.56;5101193;27;46959;-79
2023/05/07 00:31:28;;;;;;;;;6.00;5.33;;;;;21.18;100.00;101050.84;5101074;27;53668;-78
2023/05/07 00:33:53;;;;;;;;;5.67;5.00;;;;;21.23;100.00;101055.53;5079214;28;48382;-78
2023/05/07 00:36:18;;;;;;;;;8.00;5.67;;;;;21.30;100.00;101059.75;5100394;27;45364;-79
2023/05/07 00:38:43;;;;;;;;;6.00;5.00;;;;;21.38;100.00;101065.84;5079482;28;45434;-79
2023/05/07 00:41:09;;;;;;;;;6.00;5.33;;;;;21.30;100.00;101035.44;5098507;27;52036;-79
2023/05/07 00:43:34;;;;;;;;;3.33;3.33;;;;;21.28;100.00;101025.91;5101219;27;45275;-80
2023/05/07 00:46:00;;;;;;;;;3.33;2.67;;;;;21.38;100.00;101036.94;5101051;27;45829;-78
2023/05/07 00:48:25;;;;;;;;;3.67;3.67;;;;;21.36;100.00;101030.09;5078466;28;45303;-79
2023/05/07 00:50:51;;;;;;;;;5.00;5.00;;;;;21.34;100.00;101048.47;5096190;27;45347;-79
2023/05/07 00:53:17;;;;;;;;;2.00;2.00;;;;;21.37;100.00;101061.50;5100971;27;45286;-78
2023/05/07 00:55:42;;;;;;;;;4.00;2.67;;;;;21.39;100.00;101062.91;5100818;27;45299;-78
2023/05/07 00:58:08;;;;;;;;;5.00;3.33;;;;;21.33;100.00;101055.75;5080359;27;45296;-78
2023/05/07 01:00:33;;;;;;;;;3.33;2.00;;;;;21.34;100.00;101054.66;5079031;28;45923;-78
2023/05/07 01:02:59;;;;;;;;;1.67;0.00;;;;;21.26;100.00;101039.69;5078947;28;47526;-78
2023/05/07 01:05:26;;;;;;;;;3.33;2.33;;;;;21.34;100.00;101056.56;5078795;28;45337;-78
2023/05/07 01:07:54;;;;;;;;;4.00;3.00;;;;;21.41;100.00;101062.66;5096328;27;45292;-78
2023/05/07 01:10:20;;;;;;;;;4.00;3.67;;;;;21.42;100.00;101070.53;5100452;27;45352;-78
2023/05/07 01:12:48;;;;;;;;;1.67;1.33;;;;;21.42;100.00;101057.00;5078868;28;48269;-78
2023/05/07 01:15:14;;;;;;;;;2.00;2.00;;;;;21.40;100.00;101059.13;5080707;27;45981;-78
2023/05/07 01:17:41;;;;;;;;;3.67;3.33;;;;;21.48;100.00;101055.22;5079080;28;45308;-79
2023/05/07 01:20:07;;;;;;;;;2.33;2.33;;;;;21.46;100.00;101048.44;5079600;27;46122;-78
2023/05/07 01:22:36;;;;;;;;;2.00;2.00;;;;;21.45;100.00;101058.41;5078485;28;47447;-78
2023/05/07 01:25:02;;;;;;;;;2.00;2.00;;;;;21.55;100.00;101076.72;5097083;27;45271;-78
2023/05/07 01:27:28;;;;;;;;;1.33;1.33;;;;;21.52;100.00;101075.31;5100536;27;45342;-79
2023/05/07 01:29:53;;;;;;;;;3.00;3.00;;;;;21.51;100.00;101054.75;5076018;27;46975;-78
2023/05/07 01:32:27;;;;;;;;;3.00;3.00;;;;;21.63;100.00;101067.41;5100286;27;45274;-78
2023/05/07 01:34:54;;;;;;;;;3.00;2.00;;;;;21.60;100.00;101055.19;5081748;27;45233;-79
2023/05/07 01:37:20;;;;;;;;;1.00;1.00;;;;;21.57;100.00;101052.97;5100459;27;45224;-78
2023/05/07 01:39:47;;;;;;;;;2.67;2.33;;;;;21.62;100.00;101054.94;5099889;27;45481;-78
2023/05/07 01:42:12;;;;;;;;;3.00;3.00;;;;;21.56;100.00;101046.75;5099872;27;45344;-78
2023/05/07 01:44:38;;;;;;;;;2.00;2.00;;;;;21.57;100.00;101039.44;5100130;27;45305;-80
2023/05/07 01:47:04;;;;;;;;;1.00;1.00;;;;;21.59;100.00;101041.91;5100200;27;45251;-79
2023/05/07 01:49:32;;;;;;;;;2.33;1.33;;;;;21.62;100.00;101030.59;5100225;27;45326;-79
2023/05/07 01:51:58;;;;;;;;;2.00;2.00;;;;;21.65;100.00;101024.72;5081773;27;47196;-79
2023/05/07 01:54:30;;;;;;;;;2.67;2.00;;;;;21.62;100.00;101014.38;5099963;27;45187;-79
2023/05/07 01:56:56;;;;;;;;;4.33;3.00;;;;;21.58;100.00;101008.66;5100368;27;45688;-79
2023/05/07 01:59:22;;;;;;;;;2.00;2.00;;;;;21.57;100.00;101010.53;5100092;27;45242;-79
2023/05/07 02:01:47;;;;;;;;;2.33;2.00;;;;;21.48;100.00;101001.16;5102581;27;46314;-79
2023/05/07 02:04:13;;;;;;;;;1.67;1.67;;;;;21.40;100.00;101010.47;5103823;27;45232;-79
2023/05/07 02:06:38;;;;;;;;;0.67;0.67;;;;;21.45;100.00;101004.34;5085338;27;45306;-79
2023/05/07 02:09:03;;;;;;;;;2.00;2.00;;;;;21.46;100.00;101005.16;5103074;27;50780;-79
2023/05/07 02:11:28;;;;;;;;;1.00;1.00;;;;;21.46;100.00;101000.56;5103191;27;45313;-79
2023/05/07 02:13:54;;;;;;;;;1.00;1.00;;;;;21.44;100.00;101000.84;5084788;27;53234;-77
2023/05/07 02:16:19;;;;;;;;;2.33;2.00;;;;;21.44;100.00;101000.84;5103108;27;55939;-78
2023/05/07 02:18:45;;;;;;;;;1.00;1.00;;;;;21.42;100.00;100996.72;5103604;27;45375;-78
2023/05/07 02:21:10;;;;;;;;;1.33;1.33;;;;;21.53;100.00;101012.09;5102612;27;46367;-77
2023/05/07 02:23:35;;;;;;;;;1.00;1.00;;;;;21.39;100.00;100987.22;5103377;27;49568;-77
2023/05/07 02:26:01;;;;;;;;;2.33;2.00;;;;;21.56;100.00;101000.78;5103283;27;45319;-77
2023/05/07 02:28:26;;;;;;;;;1.00;1.00;;;;;21.55;100.00;101012.63;5103090;27;45511;-77
2023/05/07 02:30:52;;;;;;;;;1.00;1.00;;;;;21.53;100.00;101006.69;5103284;27;45251;-77
2023/05/07 02:33:18;;;;;;;;;0.67;0.67;;;;;21.48;100.00;101005.72;5103082;27;45301;-77
2023/05/07 02:35:43;;;;;;;;;1.00;1.00;;;;;21.46;100.00;101013.28;5103042;27;45492;-77
2023/05/07 02:38:10;;;;;;;;;1.00;1.00;;;;;21.44;100.00;101003.53;5102829;27;45306;-77
2023/05/07 02:40:38;;;;;;;;;2.00;1.00;;;;;21.51;100.00;101011.50;5102974;27;46114;-77
2023/05/07 02:43:04;;;;;;;;;1.00;1.00;;;;;21.52;100.00;101009.63;5103097;27;45275;-77
2023/05/07 02:45:29;;;;;;;;;2.00;2.00;;;;;21.35;100.00;100985.22;5084657;27;45394;-77
2023/05/07 02:47:54;;;;;;;;;2.67;2.67;;;;;21.52;100.00;101005.00;5102615;27;57484;-78
2023/05/07 02:50:20;;;;;;;;;1.00;1.00;;;;;;;;5102752;27;45940;-77
2023/05/07 02:52:45;;;;;;;;;1.00;1.00;;;;;21.57;100.00;101001.59;5103088;27;45247;-77
2023/05/07 02:55:11;;;;;;;;;2.67;2.00;;;;;21.49;100.00;100991.16;5102826;27;45137;-76
2023/05/07 02:57:36;;;;;;;;;1.00;1.00;;;;;21.54;100.00;100999.38;5084456;27;46964;-76
2023/05/07 03:00:11;;;;;;;;;1.00;1.00;;;;;21.57;100.00;100988.91;5102920;27;45312;-75
2023/05/07 03:02:36;;;;;;;;;0.00;0.00;;;;;21.54;100.00;100975.03;5084135;27;46315;-74
2023/05/07 03:05:03;;;;;;;;;0.00;0.00;;;;;21.57;100.00;100977.25;5102703;27;45606;-76
2023/05/07 03:07:28;;;;;;;;;0.00;0.00;;;;;21.59;100.00;100969.72;5102646;27;46100;-75
2023/05/07 03:09:54;;;;;;;;;1.00;1.00;;;;;21.62;100.00;100985.47;5083846;27;48028;-75
2023/05/07 03:12:20;;;;;;;;;1.00;1.00;;;;;21.57;100.00;100978.09;5083659;27;45327;-75
2023/05/07 03:14:45;;;;;;;;;1.67;0.00;;;;;21.53;100.00;100976.09;5102726;27;45413;-74
2023/05/07 03:17:10;;;;;;;;;1.00;1.00;;;;;21.51;100.00;100980.91;5102200;27;47514;-75
2023/05/07 03:19:35;;;;;;;;;0.00;0.00;;;;;21.50;100.00;100998.22;5102512;27;49665;-74
2023/05/07 03:22:01;;;;;;;;;0.00;0.00;;;;;21.44;100.00;101008.94;5083741;27;50130;-74
2023/05/07 03:24:26;;;;;;;;;2.00;0.33;;;;;21.46;100.00;101035.72;5102482;27;45292;-74
2023/05/07 03:26:51;;;;;;;;;1.00;1.00;;;;;21.46;100.00;101043.81;5084023;27;45912;-74
2023/05/07 03:29:17;;;;;;;;;3.00;2.00;;;;;21.42;100.00;101043.50;5088303;27;60621;-75
2023/05/07 03:31:42;;;;;;;;;2.00;2.00;;;;;21.39;100.00;101046.69;5101831;27;53177;-77
2023/05/07 03:34:07;;;;;;;;;2.00;2.00;;;;;21.31;100.00;101028.94;5102010;27;45342;-78
2023/05/07 03:36:32;;;;;;;;;5.00;3.33;;;;;21.28;100.00;101020.53;5083316;27;57564;-77
2023/05/07 03:38:58;;;;;;;;;2.00;2.00;;;;;21.31;100.00;101023.53;5083384;27;47273;-77
2023/05/07 03:41:25;;;;;;;;;1.00;1.00;;;;;21.29;100.00;101014.03;5083800;27;45331;-77
2023/05/07 03:43:50;;;;;;;;;1.67;1.67;;;;;21.30;100.00;101012.97;5102302;27;45220;-78
2023/05/07 03:46:16;;;;;;;;;1.67;1.67;;;;;21.29;100.00;101022.97;5101659;27;51996;-78
2023/05/07 03:48:41;;;;;;;;;2.00;2.00;;;;;21.27;100.00;101026.97;5102055;27;46091;-78
2023/05/07 03:51:06;;;;;;;;;2.00;2.00;;;;;21.32;100.00;101051.41;5101952;27;45390;-77
2023/05/07 03:53:32;;;;;;;;;3.00;3.00;;;;;21.37;100.00;101043.38;5102149;27;45289;-77
2023/05/07 03:55:57;;;;;;;;;2.00;2.00;;;;;21.37;100.00;101037.97;5101786;27;45330;-78
2023/05/07 03:58:22;;;;;;;;;1.00;1.00;;;;;21.43;100.00;101039.72;5083283;27;47677;-78
2023/05/07 04:00:48;;;;;;;;;1.00;1.00;;;;;21.42;100.00;101038.09;5083021;27;57624;-78
2023/05/07 04:03:14;;;;;;;;;1.00;1.00;;;;;21.36;100.00;101027.41;5101676;27;45417;-77
2023/05/07 04:05:39;;;;;;;;;2.00;1.00;;;;;21.44;100.00;101043.25;5083034;27;47311;-76
2023/05/07 04:08:05;;;;;;;;;3.00;3.00;;;;;21.44;100.00;101030.56;5101655;27;46834;-77
2023/05/07 04:10:30;;;;;;;;;3.00;2.67;;;;;21.46;100.00;101035.72;5101417;27;45360;-76
2023/05/07 04:12:56;;;;;;;;;3.00;3.00;;;;;21.42;100.00;101031.84;5083518;27;45428;-77
2023/05/07 04:15:22;;;;;;;;;2.00;2.00;;;;;21.40;100.00;101042.91;5101664;27;45295;-78
2023/05/07 04:17:48;;;;;;;;;2.67;1.00;;;;;21.42;100.00;101039.97;5101468;27;46716;-77
2023/05/07 04:20:16;;;;;;;;;1.00;1.00;;;;;21.46;100.00;101051.13;5101333;27;45267;-77
2023/05/07 04:22:41;;;;;;;;;1.00;1.00;;;;;21.44;100.00;101048.66;5082424;27;45323;-77
2023/05/07 04:25:09;;;;;;;;;3.00;2.00;;;;;21.37;100.00;101050.69;5100659;27;45366;-77
2023/05/07 04:27:34;;;;;;;;;3.00;1.00;;;;;21.33;100.00;101044.13;5081957;27;48119;-77
2023/05/07 04:30:00;;;;;;;;;1.00;1.00;;;;;21.38;100.00;101055.03;5082204;27;45352;-77
2023/05/07 04:32:26;;;;;;;;;3.00;1.67;;;;;21.37;100.00;101048.78;5100332;27;45397;-77
2023/05/07 04:34:51;;;;;;;;;1.67;1.67;;;;;21.41;100.00;101055.38;5082577;27;45843;-76
2023/05/07 04:37:16;;;;;;;;;4.00;3.00;;;;;21.41;100.00;101062.66;5101228;27;46117;-76
2023/05/07 04:39:42;;;;;;;;;2.33;2.33;;;;;21.39;100.00;101056.66;5100862;27;45397;-75
2023/05/07 04:42:08;;;;;;;;;1.67;1.67;;;;;21.40;100.00;101050.22;5082964;27;45309;-76
2023/05/07 04:44:34;;;;;;;;;2.00;2.00;;;;;21.44;100.00;101051.38;5082607;27;47027;-76
2023/05/07 04:47:00;;;;;;;;;1.00;1.00;;;;;21.46;100.00;101057.34;5101041;27;45233;-77
2023/05/07 04:49:25;;;;;;;;;2.00;2.00;;;;;21.42;100.00;101045.38;5101176;27;45347;-76
2023/05/07 04:51:50;;;;;;;;;2.00;2.00;;;;;21.46;100.00;101035.72;5101016;27;45246;-76
2023/05/07 04:54:16;;;;;;;;;3.33;2.00;;;;;21.48;100.00;101041.72;5100216;27;61622;-77
2023/05/07 04:56:41;;;;;;;;;2.00;2.00;;;;;21.52;100.00;101050.19;5100762;27;48971;-76
2023/05/07 04:59:06;;;;;;;;;1.67;1.00;;;;;21.55;100.00;101060.50;5100888;27;45297;-77
2023/05/07 05:01:32;;;;;;;;;3.67;2.67;;;;;21.49;100.00;101051.44;5082292;27;45341;-75
2023/05/07 05:03:57;;;;;;;;;2.00;2.00;;;;;21.54;100.00;101064.25;5100666;27;45270;-76
2023/05/07 05:06:22;;;;;;;;;2.00;2.00;;;;;21.55;100.00;101069.44;5082127;27;48032;-76
2023/05/07 05:08:48;;;;;;;;;5.00;3.00;;;;;21.46;100.00;101061.94;5100198;27;55011;-77
2023/05/07 05:11:14;;;;;;;;;1.33;1.33;;;;;21.52;100.00;101083.41;5100789;27;45281;-77
2023/05/07 05:13:40;;;;;;;;;3.00;2.00;;;;;21.50;100.00;101077.44;5098741;27;45447;-78
2023/05/07 05:16:05;;;;;;;;;1.00;1.00;;;;;21.54;100.00;101085.88;5095769;27;46537;-77
2023/05/07 05:18:31;;;;;;;;;3.00;3.00;;;;;21.50;100.00;101088.25;5081483;27;45395;-76
2023/05/07 05:20:56;;;;;;;;;2.33;1.67;;;;;21.52;100.00;101094.22;5081453;27;45409;-76
2023/05/07 05:23:21;;;;;;;;;3.00;3.00;;;;;21.47;100.00;101080.63;5100410;27;45580;-77
2023/05/07 05:25:47;;;;;;;;;3.00;3.00;;;;;21.51;100.00;101084.50;5081924;27;47918;-76
2023/05/07 05:28:12;;;;;;;;;2.00;1.00;;;;;21.56;100.00;101087.31;5100536;27;45328;-76
2023/05/07 05:30:38;;;;;;;;;4.00;3.00;;;;;21.57;100.00;101102.47;5100121;27;50036;-75
2023/05/07 05:33:04;;;;;;;;;5.67;4.00;;;;;21.53;100.00;101101.31;5100352;27;45295;-74
2023/05/07 05:35:29;;;;;;;;;2.67;2.00;;;;;21.57;100.00;101097.06;5099846;27;46351;-75
2023/05/07 05:37:55;;;;;;;;;2.67;2.67;;;;;21.53;100.00;101097.78;5100262;27;45453;-74
2023/05/07 05:40:20;;;;;;;;;2.33;2.33;;;;;21.54;100.00;101097.53;5100112;27;45230;-74
2023/05/07 05:42:45;;;;;;;;;2.67;2.67;;;;;21.54;100.00;101105.66;5100245;27;45258;-74
2023/05/07 05:45:10;;;;;;;;;3.00;3.00;;;;;21.53;100.00;101103.19;5081724;27;51536;-75
2023/05/07 05:47:37;;;;;;;;;2.00;2.00;;;;;21.55;100.00;101101.06;5100322;27;45290;-75
2023/05/07 05:50:03;;;;;;;;;3.00;3.00;;;;;21.46;100.00;101097.88;5100245;27;45262;-76
2023/05/07 05:52:28;;;;;;;;;3.00;2.00;;;;;21.53;100.00;101101.31;5100095;27;45263;-75
2023/05/07 05:54:54;;;;;;;;;2.00;2.00;;;;;21.53;100.00;101095.06;5099787;27;45594;-75
2023/05/07 05:57:19;;;;;;;;;3.00;3.00;;;;;21.56;100.00;101103.53;5100065;27;45329;-75
2023/05/07 05:59:46;;;;;;;;;4.00;3.00;;;;;21.57;100.00;101107.03;5081671;27;45342;-77
2023/05/07 06:02:11;;;;;;;;;3.00;2.00;;;;;21.62;100.00;101109.03;5100003;27;45264;-74
2023/05/07 06:04:36;;;;;;;;;4.00;4.00;;;;;21.55;100.00;101096.47;5080983;27;63025;-75
2023/05/07 06:07:02;;;;;;;;;3.00;3.00;;;;;21.66;100.00;101110.19;5099844;27;45207;-75
2023/05/07 06:09:27;;;;;;;;;1.67;1.67;;;;;21.68;100.00;101110.78;5081178;27;52320;-75
2023/05/07 06:11:52;;;;;;;;;3.00;3.00;;;;;21.63;100.00;101108.78;5081404;27;45984;-74
2023/05/07 06:14:18;;;;;;;;;1.67;1.67;;;;;21.74;100.00;101112.53;5099667;27;46066;-74
2023/05/07 06:16:43;;;;;;;;;3.00;3.00;;;;;21.70;100.00;101104.06;5080586;27;51620;-75
2023/05/07 06:19:09;;;;;;;;;3.00;3.00;;;;;21.70;100.00;101105.97;5099856;27;45491;-76
2023/05/07 06:21:34;;;;;;;;;2.00;2.00;;;;;21.72;100.00;101114.63;5099605;27;45299;-75
2023/05/07 06:24:00;;;;;;;;;2.33;2.33;;;;;21.80;100.00;101119.72;5099471;27;45394;-76
2023/05/07 06:26:25;;;;;;;;;4.00;3.67;;;;;21.73;100.00;101110.88;5099454;27;53877;-75
2023/05/07 06:28:50;;;;;;;;;4.00;4.00;;;;;21.78;100.00;101124.53;5099474;27;48087;-75
2023/05/07 06:31:20;;;;;;;;;2.67;2.00;;;;;21.86;100.00;101126.03;5099249;27;46781;-74
2023/05/07 06:33:45;;;;;;;;;2.00;2.00;;;;;21.88;100.00;101132.00;5098875;27;46124;-75
2023/05/07 06:36:11;;;;;;;;;3.67;3.67;;;;;21.85;100.00;101127.09;5099309;27;45350;-75
2023/05/07 06:38:36;;;;;;;;;2.33;2.33;;;;;21.93;100.00;101125.88;5080803;27;45181;-75
2023/05/07 06:41:01;;;;;;;;;3.00;3.00;;;;;21.84;100.00;101122.75;5080579;27;56238;-73
2023/05/07 06:43:27;;;;;;;;;4.00;4.00;;;;;21.93;100.00;101132.13;5099255;27;45274;-74
2023/05/07 06:45:52;;;;;;;;;4.00;4.00;;;;;21.76;100.00;101110.41;5099413;27;45330;-74
2023/05/07 06:48:17;;;;;;;;;5.67;5.67;;;;;21.94;100.00;101135.66;5102727;27;45274;-73
2023/05/07 06:50:43;;;;;;;;;2.00;2.00;;;;;21.91;100.00;101128.81;5101827;27;53895;-73
2023/05/07 06:53:08;;;;;;;;;3.67;3.67;;;;;21.93;100.00;101131.28;5080851;27;55207;-74
2023/05/07 06:55:34;;;;;;;;;3.00;3.00;;;;;21.99;100.00;101135.75;5079511;27;45347;-74
2023/05/07 06:58:00;;;;;;;;;4.00;4.00;;;;;21.93;100.00;101121.31;5101486;27;45187;-74
2023/05/07 07:00:26;;;;;;;;;5.00;5.00;;;;;22.00;100.00;101131.97;5082045;27;46034;-74
2023/05/07 07:02:53;;;;;;;;;4.00;3.00;;;;;22.05;100.00;101140.19;5083896;27;47319;-74
2023/05/07 07:05:19;;;;;;;;;5.00;5.00;;;;;22.02;100.00;101137.97;5081752;27;45757;-73
2023/05/07 07:07:44;;;;;;;;;6.33;6.33;;;;;21.97;100.00;101131.66;5066830;27;45390;-74
2023/05/07 07:10:09;;;;;;;;;5.33;5.33;;;;;22.06;100.00;101136.41;5102247;27;45614;-75
2023/05/07 07:12:35;;;;;;;;;7.67;7.67;;;;;22.11;100.00;101142.97;5102442;27;46111;-73
2023/05/07 07:15:00;;;;;;;;;6.67;6.67;;;;;22.15;100.00;101147.66;5102261;27;51780;-74
2023/05/07 07:17:25;;;;;;;;;5.00;5.00;;;;;22.13;100.00;101143.56;5102667;27;45272;-74
2023/05/07 07:19:51;;;;;;;;;3.33;3.33;;;;;22.13;100.00;101148.97;5102349;27;45732;-73
2023/05/07 07:22:16;;;;;;;;;10.00;10.00;;;;;22.10;100.00;101138.63;5083661;27;47029;-74
2023/05/07 07:24:41;;;;;;;;;7.00;7.00;;;;;22.19;100.00;101148.84;5102246;27;45321;-74
2023/05/07 07:27:07;;;;;;;;;9.00;9.00;;;;;22.27;100.00;101152.22;5083947;27;45487;-74
2023/05/07 07:29:32;;;;;;;;;7.00;5.67;;;;;22.34;100.00;101144.75;5102066;27;49674;-73
2023/05/07 07:31:57;;;;;;;;;4.00;4.00;;;;;22.38;100.00;101140.50;5083808;27;48142;-74
2023/05/07 07:34:23;;;;;;;;;5.33;4.00;;;;;22.44;100.00;101146.81;5102114;27;45258;-76
2023/05/07 07:36:48;;;;;;;;;6.00;6.00;;;;;22.57;100.00;101153.81;5102211;27;45334;-74
2023/05/07 07:39:13;;;;;;;;;7.33;6.00;;;;;22.59;100.00;101156.31;5101804;27;46775;-73
2023/05/07 07:41:39;;;;;;;;;5.00;5.00;;;;;22.65;100.00;101163.44;5083481;27;48148;-73
2023/05/07 07:44:07;;;;;;;;;5.33;4.67;;;;;22.71;100.00;101165.16;5095812;27;46031;-74
2023/05/07 07:46:32;;;;;;;;;3.67;3.67;;;;;22.69;100.00;101165.41;5081699;28;45302;-73
2023/05/07 07:48:59;;;;;;;;;4.00;4.00;;;;;22.75;100.00;101179.06;5081502;28;45321;-73
2023/05/07 07:51:25;;;;;;;;;4.00;4.00;;;;;22.78;100.00;101173.13;5073097;28;45417;-71
2023/05/07 07:53:50;;;;;;;;;3.00;3.00;;;;;22.66;100.00;101170.50;5086661;27;45476;-72
2023/05/07 07:56:15;;;;;;;;;8.00;4.67;;;;;22.66;100.00;101179.44;5101579;27;50688;-72
2023/05/07 07:58:40;;;;;;;;;3.00;3.00;;;;;22.73;100.00;101167.63;5097227;27;45294;-71
2023/05/07 08:01:07;;;;;;;;;5.00;5.00;;;;;22.73;100.00;101171.16;5079787;28;47085;-71
2023/05/07 08:03:32;;;;;;;;;1.00;1.00;;;;;22.78;100.00;101168.53;5081080;28;47999;-71
2023/05/07 08:05:58;;;;;;;;;5.00;4.00;;;;;22.90;100.00;101175.75;5081280;28;45260;-72
2023/05/07 08:08:23;;;;;;;;;4.33;3.00;;;;;22.96;100.00;101182.91;5080932;28;45228;-71
2023/05/07 08:10:50;;;;;;;;;5.00;5.00;;;;;22.92;100.00;101162.78;5062791;28;47383;-71
2023/05/07 08:13:15;;;;;;;;;4.00;4.00;;;;;23.00;100.00;101185.94;5074044;27;45699;-71
2023/05/07 08:15:41;;;;;;;;;7.67;7.67;;;;;23.00;100.00;101181.34;5101683;27;45198;-71
2023/05/07 08:18:06;;;;;;;;;6.00;6.00;;;;;23.08;100.00;101182.81;5101495;27;45365;-71
2023/05/07 08:20:32;;;;;;;;;4.67;4.67;;;;;23.21;100.00;101192.47;5101044;27;53790;-71
2023/05/07 08:22:57;;;;;;;;;5.00;5.00;;;;;23.24;100.00;101191.16;5101382;27;45306;-71
2023/05/07 08:25:22;;;;;;;;;5.00;5.00;;;;;23.33;100.00;101195.94;5101183;27;48184;-71
2023/05/07 08:27:48;;;;;;;;;3.33;3.33;;;;;23.38;100.00;101194.38;5101067;27;45624;-71
2023/05/07 08:30:13;;;;;;;;;4.33;4.33;;;;;23.43;100.00;101203.41;5100955;27;45395;-71
2023/05/07 08:32:39;;;;;;;;;4.67;4.67;;;;;23.51;100.00;101209.47;5101278;27;45322;-71
2023/05/07 08:35:05;;;;;;;;;6.67;6.33;;;;;23.46;100.00;101199.34;5101228;27;45381;-71
2023/05/07 08:37:30;;;;;;;;;5.33;5.33;;;;;23.51;100.00;101210.28;5101067;27;45343;-71
2023/05/07 08:39:55;;;;;;;;;6.00;6.00;;;;;23.53;100.00;101210.88;5100728;27;45440;-71
2023/05/07 08:42:23;;;;;;;;;5.00;5.00;;;;;23.47;100.00;101211.03;5101035;27;45345;-72
2023/05/07 08:44:52;;;;;;;;;4.33;4.00;;;;;23.51;100.00;101221.13;5083458;27;45291;-71
2023/05/07 08:47:19;;;;;;;;;4.00;4.00;;;;;23.47;100.00;101211.03;5099644;27;45504;-71
2023/05/07 08:49:44;;;;;;;;;6.00;6.00;;;;;23.45;100.00;101212.13;5077442;27;45441;-71
2023/05/07 08:52:12;;;;;;;;;3.67;3.67;;;;;23.55;100.00;101219.56;5099753;27;45484;-71
2023/05/07 08:54:38;;;;;;;;;3.00;3.00;;;;;23.61;100.00;101223.16;5100489;27;45396;-71
2023/05/07 08:57:03;;;;;;;;;2.00;2.00;;;;;23.54;100.00;101209.78;5091165;27;45682;-71
2023/05/07 08:59:28;;;;;;;;;3.67;3.67;;;;;23.50;100.00;101216.78;5097778;27;47828;-72
2023/05/07 09:01:54;;;;;;;;;4.00;4.00;;;;;23.57;100.00;101217.44;5092952;27;45244;-72
2023/05/07 09:04:19;;;;;;;;;4.00;4.00;;;;;23.57;100.00;101220.16;5061551;28;45309;-71
2023/05/07 09:06:45;;;;;;;;;4.00;4.00;;;;;23.52;100.00;101217.34;5078620;28;45378;-73
2023/05/07 09:09:17;;;;;;;;;3.67;3.67;;;;;23.51;100.00;101231.16;5061262;28;47295;-73
2023/05/07 09:11:42;;;;;;;;;5.67;5.33;;;;;23.61;100.00;101231.28;5080269;28;45344;-73
2023/05/07 09:14:07;;;;;;;;;3.00;3.00;;;;;23.68;100.00;101218.38;5079897;28;51656;-72
2023/05/07 09:16:33;;;;;;;;;4.00;4.00;;;;;23.61;100.00;101220.44;5080048;28;47330;-72
2023/05/07 09:19:00;;;;;;;;;5.67;5.33;;;;;23.59;100.00;101225.31;5061248;28;55520;-72
2023/05/07 09:21:27;;;;;;;;;3.00;3.00;;;;;23.59;100.00;101230.75;5061723;28;45711;-73
2023/05/07 09:23:53;;;;;;;;;3.67;3.67;;;;;23.62;100.00;101224.00;5080002;28;45371;-73
2023/05/07 09:26:21;;;;;;;;;4.00;4.00;;;;;23.62;100.00;101235.66;5076486;27;45627;-74
2023/05/07 09:28:46;;;;;;;;;2.00;2.00;;;;;23.61;100.00;101234.00;5084110;27;46099;-74
2023/05/07 09:31:12;;;;;;;;;2.33;2.33;;;;;23.64;100.00;101216.44;5100102;27;45356;-73
2023/05/07 09:33:38;;;;;;;;;1.00;1.00;;;;;23.73;100.00;101227.66;5100687;27;45433;-74
2023/05/07 09:36:08;;;;;;;;;3.00;3.00;;;;;23.72;100.00;101224.13;5081951;27;47171;-74
2023/05/07 09:38:35;;;;;;;;;1.00;1.00;;;;;23.73;100.00;101225.75;5102102;27;45595;-75
2023/05/07 09:41:07;;;;;;;;;2.00;1.00;;;;;23.74;100.00;101240.97;5100730;27;45552;-78
2023/05/07 09:43:34;;;;;;;;;2.67;2.67;;;;;23.75;100.00;101239.91;5079516;27;47526;-73
2023/05/07 09:46:11;;;;;;;;;2.00;2.00;;;;;23.74;100.00;101227.41;5082272;27;45999;-74
2023/05/07 09:48:39;;;;;;;;;1.00;1.00;;;;;23.75;100.00;101222.78;5099661;27;46213;-75
2023/05/07 09:51:21;;;;;;;;;1.00;1.00;;;;;23.80;100.00;101233.72;5080901;27;45650;-74
2023/05/07 09:53:47;;;;;;;;;2.00;2.00;;;;;23.77;100.00;101228.78;5099565;27;45423;-74
2023/05/07 09:56:15;;;;;;;;;1.33;1.00;;;;;23.76;100.00;101219.81;5098802;27;45438;-74
2023/05/07 09:58:41;;;;;;;;;1.25;1.25;;;;;23.82;100.00;101229.69;5080157;27;47077;-74
2023/05/07 10:01:07;;;;;;;;;3.00;3.00;;;;;23.81;100.00;101233.47;5100110;27;45267;-74
2023/05/07 10:03:35;;;;;;;;;4.33;3.00;;;;;23.80;100.00;101241.84;5100016;27;45391;-75
2023/05/07 10:06:02;;;;;;;;;3.00;3.00;;;;;23.78;100.00;101233.97;5081623;27;47216;-74
2023/05/07 10:08:30;;;;;;;;;2.25;2.25;;;;;23.77;100.00;101237.78;5099231;27;46366;-73
2023/05/07 10:10:55;;;;;;;;;2.75;2.75;;;;;23.71;100.00;101249.63;5100184;27;45209;-74
2023/05/07 10:13:21;;;;;;;;;1.00;1.00;;;;;23.69;100.00;101239.03;5100057;27;45212;-74
2023/05/07 10:15:47;;;;;;;;;0.75;0.75;;;;;23.80;100.00;101258.16;5081186;27;46982;-74
2023/05/07 10:18:13;;;;;;;;;1.67;1.67;;;;;23.85;100.00;101250.06;5099889;27;45368;-74
2023/05/07 10:20:40;;;;;;;;;1.00;1.00;;;;;23.92;100.00;101258.03;5099018;27;45360;-73
2023/05/07 10:23:09;;;;;;;;;0.75;0.75;;;;;23.85;100.00;101246.53;5103004;27;45368;-73
2023/05/07 10:25:35;;;;;;;;;2.00;2.00;;;;;23.76;100.00;101249.66;5102938;27;45402;-74
2023/05/07 10:28:05;;;;;;;;;0.00;0.00;;;;;23.86;100.00;101262.56;5101562;27;47219;-74
2023/05/07 10:30:40;;;;;;;;;1.75;1.75;;;;;23.85;100.00;101268.25;5084644;27;45408;-74
2023/05/07 10:33:10;;;;;;;;;1.00;1.00;;;;;23.81;100.00;101259.78;5084742;27;45399;-74
2023/05/07 10:35:41;;;;;;;;;1.25;1.25;;;;;23.81;100.00;101266.03;5103660;27;45424;-73
2023/05/07 10:38:07;;;;;;;;;1.00;1.00;;;;;23.80;100.00;101266.28;5102954;27;45446;-75
2023/05/07 10:40:33;;;;;;;;;5.00;5.00;;;;;23.88;100.00;101271.25;5103011;27;45204;-74
2023/05/07 10:43:00;;;;;;;;;12.00;12.00;;;;;23.95;100.00;101262.94;5084687;27;45340;-75
2023/05/07 10:45:26;;;;;;;;;2.00;2.00;;;;;23.95;100.00;101261.03;5076337;27;46559;-74
2023/05/07 10:48:07;;;;;;;;;0.50;0.50;;;;;24.09;100.00;101264.19;5102835;27;46200;-73
2023/05/07 10:50:32;;;;;;;;;0.00;0.00;;;;;24.19;100.00;101263.53;5085726;27;45232;-76
2023/05/07 10:53:16;;;;;;;;;1.75;1.75;;;;;24.30;100.00;101274.53;5104322;27;47017;-77
2023/05/07 10:55:42;;;;;;;;;1.00;1.00;;;;;24.30;100.00;101256.31;5102813;27;45618;-74
2023/05/07 10:58:28;;;;;;;;;1.00;1.00;;;;;24.46;100.00;101270.06;5102869;27;45278;-74
2023/05/07 11:00:58;;;;;;;;;1.00;1.00;;;;;24.55;100.00;101270.44;5102605;27;45305;-74
2023/05/07 11:03:25;;;;;;;;;0.25;0.25;;;;;24.57;100.00;101262.84;5102436;27;45582;-74
2023/05/07 11:06:16;;;;;;;;;2.33;2.33;;;;;24.73;100.00;101271.97;5100832;27;45450;-75
2023/05/07 11:08:57;;;;;;;;;1.67;1.67;;;;;24.82;100.00;101273.16;5094363;27;45841;-74
2023/05/07 11:11:51;;;;;;;;;2.00;2.00;;;;;24.88;100.00;101281.38;5100115;27;45412;-74
2023/05/07 11:14:43;;;;;;;;;1.00;1.00;;;;;24.90;100.00;101271.06;5100957;27;45409;-74